sensor_id;sensor_type;location;lat;lon;timestamp;P1;durP1;ratioP1;P2;durP2;ratioP2
23001;SDS011;11667;51.706;4.856;2024-03-23T00:51:52;10.88;;;3.95;;
23001;SDS011;11667;51.706;4.856;2024-03-23T00:54:21;15.10;;;4.37;;
23001;SDS011;11667;51.706;4.856;2024-03-23T00:56:51;12.82;;;4.58;;
23001;SDS011;11667;51.706;4.856;2024-03-23T00:59:20;11.08;;;4.42;;
23001;SDS011;11667;51.706;4.856;2024-03-23T01:01:51;11.43;;;4.00;;
23001;SDS011;11667;51.706;4.856;2024-03-23T01:04:20;12.18;;;4.35;;
23001;SDS011;11667;51.706;4.856;2024-03-23T01:06:50;13.98;;;4.37;;
23001;SDS011;11667;51.706;4.856;2024-03-23T01:09:19;9.25;;;2.33;;
23001;SDS011;11667;51.706;4.856;2024-03-23T01:11:48;7.08;;;2.08;;
23001;SDS011;11667;51.706;4.856;2024-03-23T01:14:17;9.93;;;3.25;;
23001;SDS011;11667;51.706;4.856;2024-03-23T01:16:47;12.60;;;2.87;;
23001;SDS011;11667;51.706;4.856;2024-03-23T01:19:16;5.85;;;2.08;;
23001;SDS011;11667;51.706;4.856;2024-03-23T01:21:46;10.48;;;2.72;;
23001;SDS011;11667;51.706;4.856;2024-03-23T01:24:16;8.68;;;2.80;;
23001;SDS011;11667;51.706;4.856;2024-03-23T01:26:45;13.90;;;4.50;;
23001;SDS011;11667;51.706;4.856;2024-03-23T01:29:14;12.43;;;3.52;;
23001;SDS011;11667;51.706;4.856;2024-03-23T01:31:44;10.43;;;3.00;;
23001;SDS011;11667;51.706;4.856;2024-03-23T01:34:13;13.43;;;2.92;;
23001;SDS011;11667;51.706;4.856;2024-03-23T01:36:42;11.18;;;3.05;;
23001;SDS011;11667;51.706;4.856;2024-03-23T01:39:13;12.85;;;2.40;;
23001;SDS011;11667;51.706;4.856;2024-03-23T01:41:42;9.18;;;2.60;;
23001;SDS011;11667;51.706;4.856;2024-03-23T01:44:12;6.83;;;2.90;;
23001;SDS011;11667;51.706;4.856;2024-03-23T01:46:41;6.65;;;2.50;;
23001;SDS011;11667;51.706;4.856;2024-03-23T01:49:10;9.50;;;2.90;;
23001;SDS011;11667;51.706;4.856;2024-03-23T01:51:40;9.75;;;2.77;;
23001;SDS011;11667;51.706;4.856;2024-03-23T01:54:11;8.98;;;2.37;;
23001;SDS011;11667;51.706;4.856;2024-03-23T01:56:40;8.15;;;3.35;;
23001;SDS011;11667;51.706;4.856;2024-03-23T01:59:09;10.50;;;2.60;;
23001;SDS011;11667;51.706;4.856;2024-03-23T02:01:38;12.25;;;3.30;;
23001;SDS011;11667;51.706;4.856;2024-03-23T02:04:08;10.50;;;2.70;;
23001;SDS011;11667;51.706;4.856;2024-03-23T02:06:38;7.97;;;3.10;;
23001;SDS011;11667;51.706;4.856;2024-03-23T02:09:07;9.13;;;3.00;;
23001;SDS011;11667;51.706;4.856;2024-03-23T02:11:37;12.85;;;3.33;;
23001;SDS011;11667;51.706;4.856;2024-03-23T02:14:06;8.75;;;3.12;;
23001;SDS011;11667;51.706;4.856;2024-03-23T02:16:35;12.15;;;3.58;;
23001;SDS011;11667;51.706;4.856;2024-03-23T02:19:05;11.05;;;3.60;;
23001;SDS011;11667;51.706;4.856;2024-03-23T02:21:34;12.60;;;2.95;;
23001;SDS011;11667;51.706;4.856;2024-03-23T02:24:03;11.53;;;2.70;;
23001;SDS011;11667;51.706;4.856;2024-03-23T02:26:32;5.67;;;2.22;;
23001;SDS011;11667;51.706;4.856;2024-03-23T02:29:02;7.28;;;2.60;;
23001;SDS011;11667;51.706;4.856;2024-03-23T02:31:31;8.00;;;2.25;;
23001;SDS011;11667;51.706;4.856;2024-03-23T02:34:00;7.42;;;2.45;;
23001;SDS011;11667;51.706;4.856;2024-03-23T02:36:29;12.85;;;2.45;;
23001;SDS011;11667;51.706;4.856;2024-03-23T02:38:59;6.53;;;2.12;;
23001;SDS011;11667;51.706;4.856;2024-03-23T02:41:28;11.43;;;2.80;;
23001;SDS011;11667;51.706;4.856;2024-03-23T02:43:57;7.05;;;2.60;;
23001;SDS011;11667;51.706;4.856;2024-03-23T02:46:27;4.22;;;2.42;;
23001;SDS011;11667;51.706;4.856;2024-03-23T02:48:56;10.88;;;2.60;;
23001;SDS011;11667;51.706;4.856;2024-03-23T02:51:25;8.30;;;2.92;;
23001;SDS011;11667;51.706;4.856;2024-03-23T02:53:54;14.23;;;2.85;;
23001;SDS011;11667;51.706;4.856;2024-03-23T02:56:24;7.20;;;3.05;;
23001;SDS011;11667;51.706;4.856;2024-03-23T02:58:53;9.23;;;3.37;;
23001;SDS011;11667;51.706;4.856;2024-03-23T03:01:22;8.43;;;2.72;;
23001;SDS011;11667;51.706;4.856;2024-03-23T03:03:52;6.40;;;3.00;;
23001;SDS011;11667;51.706;4.856;2024-03-23T03:06:24;9.30;;;3.05;;
23001;SDS011;11667;51.706;4.856;2024-03-23T03:11:23;9.85;;;3.15;;
23001;SDS011;11667;51.706;4.856;2024-03-23T03:13:52;5.83;;;3.22;;
23001;SDS011;11667;51.706;4.856;2024-03-23T03:16:21;6.35;;;3.42;;
23001;SDS011;11667;51.706;4.856;2024-03-23T03:18:51;7.60;;;3.20;;
23001;SDS011;11667;51.706;4.856;2024-03-23T03:21:20;7.55;;;2.95;;
23001;SDS011;11667;51.706;4.856;2024-03-23T03:23:49;17.32;;;3.58;;
23001;SDS011;11667;51.706;4.856;2024-03-23T03:26:18;11.33;;;3.70;;
23001;SDS011;11667;51.706;4.856;2024-03-23T03:28:48;10.85;;;2.83;;
23001;SDS011;11667;51.706;4.856;2024-03-23T03:31:18;8.45;;;3.20;;
23001;SDS011;11667;51.706;4.856;2024-03-23T03:33:49;10.15;;;3.40;;
23001;SDS011;11667;51.706;4.856;2024-03-23T03:36:19;6.10;;;3.08;;
23001;SDS011;11667;51.706;4.856;2024-03-23T03:38:49;9.43;;;4.10;;
23001;SDS011;11667;51.706;4.856;2024-03-23T03:41:18;15.90;;;3.70;;
23001;SDS011;11667;51.706;4.856;2024-03-23T03:43:47;13.72;;;3.95;;
23001;SDS011;11667;51.706;4.856;2024-03-23T03:46:17;9.73;;;3.58;;
23001;SDS011;11667;51.706;4.856;2024-03-23T03:48:46;13.40;;;3.52;;
23001;SDS011;11667;51.706;4.856;2024-03-23T03:51:16;10.15;;;3.65;;
23001;SDS011;11667;51.706;4.856;2024-03-23T03:53:45;16.02;;;4.60;;
23001;SDS011;11667;51.706;4.856;2024-03-23T03:56:14;14.13;;;3.62;;
23001;SDS011;11667;51.706;4.856;2024-03-23T03:58:43;18.37;;;4.15;;
23001;SDS011;11667;51.706;4.856;2024-03-23T04:01:13;10.20;;;3.90;;
23001;SDS011;11667;51.706;4.856;2024-03-23T04:03:43;17.48;;;3.83;;
23001;SDS011;11667;51.706;4.856;2024-03-23T04:06:13;12.88;;;3.42;;
23001;SDS011;11667;51.706;4.856;2024-03-23T04:08:49;9.75;;;3.30;;
23001;SDS011;11667;51.706;4.856;2024-03-23T04:11:18;7.35;;;3.60;;
23001;SDS011;11667;51.706;4.856;2024-03-23T04:13:47;11.80;;;3.22;;
23001;SDS011;11667;51.706;4.856;2024-03-23T04:16:26;6.30;;;2.95;;
23001;SDS011;11667;51.706;4.856;2024-03-23T04:18:56;16.55;;;3.67;;
23001;SDS011;11667;51.706;4.856;2024-03-23T04:21:25;13.70;;;3.77;;
23001;SDS011;11667;51.706;4.856;2024-03-23T04:23:55;7.83;;;3.55;;
23001;SDS011;11667;51.706;4.856;2024-03-23T04:26:24;14.70;;;3.85;;
23001;SDS011;11667;51.706;4.856;2024-03-23T04:28:53;7.87;;;2.95;;
23001;SDS011;11667;51.706;4.856;2024-03-23T04:31:23;11.83;;;3.50;;
23001;SDS011;11667;51.706;4.856;2024-03-23T04:33:52;8.10;;;3.08;;
23001;SDS011;11667;51.706;4.856;2024-03-23T04:36:21;6.50;;;2.62;;
23001;SDS011;11667;51.706;4.856;2024-03-23T04:38:51;8.08;;;3.33;;
23001;SDS011;11667;51.706;4.856;2024-03-23T04:41:20;6.92;;;2.45;;
23001;SDS011;11667;51.706;4.856;2024-03-23T04:43:49;10.18;;;2.80;;
23001;SDS011;11667;51.706;4.856;2024-03-23T04:46:19;9.45;;;3.10;;
23001;SDS011;11667;51.706;4.856;2024-03-23T04:48:48;13.88;;;2.95;;
23001;SDS011;11667;51.706;4.856;2024-03-23T04:51:21;11.25;;;2.98;;
23001;SDS011;11667;51.706;4.856;2024-03-23T04:53:53;6.85;;;2.55;;
23001;SDS011;11667;51.706;4.856;2024-03-23T04:56:22;7.20;;;2.62;;
23001;SDS011;11667;51.706;4.856;2024-03-23T04:58:51;8.95;;;2.70;;
23001;SDS011;11667;51.706;4.856;2024-03-23T05:01:20;4.40;;;2.17;;
23001;SDS011;11667;51.706;4.856;2024-03-23T05:03:50;13.83;;;3.10;;
23001;SDS011;11667;51.706;4.856;2024-03-23T05:06:20;8.05;;;2.37;;
23001;SDS011;11667;51.706;4.856;2024-03-23T05:08:49;15.18;;;2.72;;
23001;SDS011;11667;51.706;4.856;2024-03-23T05:11:19;8.33;;;2.45;;
23001;SDS011;11667;51.706;4.856;2024-03-23T05:13:48;6.83;;;2.52;;
23001;SDS011;11667;51.706;4.856;2024-03-23T05:16:17;8.48;;;2.72;;
23001;SDS011;11667;51.706;4.856;2024-03-23T05:18:47;8.28;;;2.42;;
23001;SDS011;11667;51.706;4.856;2024-03-23T05:21:16;14.20;;;2.25;;
23001;SDS011;11667;51.706;4.856;2024-03-23T05:23:45;9.18;;;2.60;;
23001;SDS011;11667;51.706;4.856;2024-03-23T05:26:15;10.68;;;2.70;;
23001;SDS011;11667;51.706;4.856;2024-03-23T05:28:44;4.95;;;2.10;;
23001;SDS011;11667;51.706;4.856;2024-03-23T05:31:22;13.70;;;2.50;;
23001;SDS011;11667;51.706;4.856;2024-03-23T05:33:53;12.23;;;3.00;;
23001;SDS011;11667;51.706;4.856;2024-03-23T05:36:23;15.15;;;2.67;;
23001;SDS011;11667;51.706;4.856;2024-03-23T05:38:52;13.35;;;2.67;;
23001;SDS011;11667;51.706;4.856;2024-03-23T05:41:21;6.42;;;2.17;;
23001;SDS011;11667;51.706;4.856;2024-03-23T05:43:51;6.83;;;2.15;;
23001;SDS011;11667;51.706;4.856;2024-03-23T05:46:20;11.43;;;2.30;;
23001;SDS011;11667;51.706;4.856;2024-03-23T05:48:50;12.90;;;2.50;;
23001;SDS011;11667;51.706;4.856;2024-03-23T05:51:21;9.08;;;2.10;;
23001;SDS011;11667;51.706;4.856;2024-03-23T05:53:51;5.72;;;2.58;;
23001;SDS011;11667;51.706;4.856;2024-03-23T05:56:20;7.00;;;2.58;;
23001;SDS011;11667;51.706;4.856;2024-03-23T05:58:49;6.80;;;2.50;;
23001;SDS011;11667;51.706;4.856;2024-03-23T06:01:18;13.58;;;2.75;;
23001;SDS011;11667;51.706;4.856;2024-03-23T06:03:48;6.25;;;2.25;;
23001;SDS011;11667;51.706;4.856;2024-03-23T06:06:17;4.78;;;2.40;;
23001;SDS011;11667;51.706;4.856;2024-03-23T06:08:46;15.40;;;3.67;;
23001;SDS011;11667;51.706;4.856;2024-03-23T06:11:16;7.75;;;2.55;;
23001;SDS011;11667;51.706;4.856;2024-03-23T06:13:45;13.35;;;2.87;;
23001;SDS011;11667;51.706;4.856;2024-03-23T06:16:14;7.85;;;3.20;;
23001;SDS011;11667;51.706;4.856;2024-03-23T06:18:43;9.28;;;2.67;;
23001;SDS011;11667;51.706;4.856;2024-03-23T06:21:13;9.73;;;2.17;;
23001;SDS011;11667;51.706;4.856;2024-03-23T06:23:42;17.45;;;2.85;;
23001;SDS011;11667;51.706;4.856;2024-03-23T06:26:14;9.35;;;2.92;;
23001;SDS011;11667;51.706;4.856;2024-03-23T06:28:43;7.70;;;2.10;;
23001;SDS011;11667;51.706;4.856;2024-03-23T06:31:13;12.47;;;2.33;;
23001;SDS011;11667;51.706;4.856;2024-03-23T06:33:42;5.45;;;2.52;;
23001;SDS011;11667;51.706;4.856;2024-03-23T06:36:11;7.60;;;2.45;;
23001;SDS011;11667;51.706;4.856;2024-03-23T06:38:42;10.03;;;2.90;;
23001;SDS011;11667;51.706;4.856;2024-03-23T06:41:11;6.97;;;2.75;;
23001;SDS011;11667;51.706;4.856;2024-03-23T06:43:41;10.70;;;2.83;;
23001;SDS011;11667;51.706;4.856;2024-03-23T06:46:12;9.45;;;2.17;;
23001;SDS011;11667;51.706;4.856;2024-03-23T06:48:41;7.00;;;2.22;;
23001;SDS011;11667;51.706;4.856;2024-03-23T06:51:10;8.10;;;2.47;;
23001;SDS011;11667;51.706;4.856;2024-03-23T06:53:39;14.78;;;2.87;;
23001;SDS011;11667;51.706;4.856;2024-03-23T06:56:09;9.03;;;2.00;;
23001;SDS011;11667;51.706;4.856;2024-03-23T06:58:40;5.45;;;2.08;;
23001;SDS011;11667;51.706;4.856;2024-03-23T07:01:09;6.15;;;2.10;;
23001;SDS011;11667;51.706;4.856;2024-03-23T07:03:39;9.65;;;2.15;;
23001;SDS011;11667;51.706;4.856;2024-03-23T07:06:09;11.83;;;2.20;;
23001;SDS011;11667;51.706;4.856;2024-03-23T07:08:38;6.60;;;2.65;;
23001;SDS011;11667;51.706;4.856;2024-03-23T07:11:07;9.83;;;2.00;;
23001;SDS011;11667;51.706;4.856;2024-03-23T07:13:37;6.22;;;1.75;;
23001;SDS011;11667;51.706;4.856;2024-03-23T07:16:06;12.45;;;2.20;;
23001;SDS011;11667;51.706;4.856;2024-03-23T07:18:36;8.03;;;1.75;;
23001;SDS011;11667;51.706;4.856;2024-03-23T07:21:05;7.42;;;1.47;;
23001;SDS011;11667;51.706;4.856;2024-03-23T07:23:36;13.60;;;2.10;;
23001;SDS011;11667;51.706;4.856;2024-03-23T07:28:47;7.03;;;2.60;;
23001;SDS011;11667;51.706;4.856;2024-03-23T07:31:17;5.58;;;1.57;;
23001;SDS011;11667;51.706;4.856;2024-03-23T07:33:48;3.10;;;1.80;;
23001;SDS011;11667;51.706;4.856;2024-03-23T07:36:17;7.47;;;1.90;;
23001;SDS011;11667;51.706;4.856;2024-03-23T07:38:46;5.72;;;1.80;;
23001;SDS011;11667;51.706;4.856;2024-03-23T07:41:20;5.25;;;1.45;;
23001;SDS011;11667;51.706;4.856;2024-03-23T07:43:49;4.65;;;1.57;;
23001;SDS011;11667;51.706;4.856;2024-03-23T07:46:20;4.70;;;2.27;;
23001;SDS011;11667;51.706;4.856;2024-03-23T07:48:49;9.00;;;2.00;;
23001;SDS011;11667;51.706;4.856;2024-03-23T07:51:21;8.63;;;1.92;;
23001;SDS011;11667;51.706;4.856;2024-03-23T07:53:50;8.03;;;2.35;;
23001;SDS011;11667;51.706;4.856;2024-03-23T07:56:21;4.12;;;1.60;;
23001;SDS011;11667;51.706;4.856;2024-03-23T07:58:51;5.75;;;1.25;;
23001;SDS011;11667;51.706;4.856;2024-03-23T08:01:20;5.12;;;1.47;;
23001;SDS011;11667;51.706;4.856;2024-03-23T08:03:49;6.20;;;1.60;;
23001;SDS011;11667;51.706;4.856;2024-03-23T08:06:19;10.45;;;1.60;;
23001;SDS011;11667;51.706;4.856;2024-03-23T08:08:51;2.65;;;1.10;;
23001;SDS011;11667;51.706;4.856;2024-03-23T08:11:25;9.75;;;1.65;;
23001;SDS011;11667;51.706;4.856;2024-03-23T08:13:58;2.83;;;1.20;;
23001;SDS011;11667;51.706;4.856;2024-03-23T08:16:27;6.78;;;1.35;;
23001;SDS011;11667;51.706;4.856;2024-03-23T08:18:56;9.43;;;1.67;;
23001;SDS011;11667;51.706;4.856;2024-03-23T08:21:26;8.03;;;1.40;;
23001;SDS011;11667;51.706;4.856;2024-03-23T08:23:55;3.35;;;1.22;;
23001;SDS011;11667;51.706;4.856;2024-03-23T08:26:24;4.60;;;1.57;;
23001;SDS011;11667;51.706;4.856;2024-03-23T08:28:53;5.78;;;1.30;;
23001;SDS011;11667;51.706;4.856;2024-03-23T08:31:23;2.47;;;1.07;;
23001;SDS011;11667;51.706;4.856;2024-03-23T08:33:52;2.40;;;1.22;;
23001;SDS011;11667;51.706;4.856;2024-03-23T08:36:21;4.47;;;1.20;;
23001;SDS011;11667;51.706;4.856;2024-03-23T08:38:51;1.92;;;1.12;;
23001;SDS011;11667;51.706;4.856;2024-03-23T08:41:22;8.25;;;1.80;;
23001;SDS011;11667;51.706;4.856;2024-03-23T08:43:51;4.70;;;1.35;;
23001;SDS011;11667;51.706;4.856;2024-03-23T08:46:21;5.92;;;1.80;;
23001;SDS011;11667;51.706;4.856;2024-03-23T08:48:50;1.80;;;1.20;;
23001;SDS011;11667;51.706;4.856;2024-03-23T08:51:20;9.83;;;2.08;;
23001;SDS011;11667;51.706;4.856;2024-03-23T08:53:49;5.10;;;1.37;;
23001;SDS011;11667;51.706;4.856;2024-03-23T08:56:19;10.85;;;1.47;;
23001;SDS011;11667;51.706;4.856;2024-03-23T08:58:48;4.05;;;1.17;;
23001;SDS011;11667;51.706;4.856;2024-03-23T09:01:17;11.18;;;1.50;;
23001;SDS011;11667;51.706;4.856;2024-03-23T09:03:46;8.18;;;1.67;;
23001;SDS011;11667;51.706;4.856;2024-03-23T09:06:16;2.98;;;1.50;;
23001;SDS011;11667;51.706;4.856;2024-03-23T09:08:45;8.80;;;2.20;;
23001;SDS011;11667;51.706;4.856;2024-03-23T09:11:14;2.12;;;1.27;;
23001;SDS011;11667;51.706;4.856;2024-03-23T09:13:44;8.20;;;2.25;;
23001;SDS011;11667;51.706;4.856;2024-03-23T09:16:13;4.87;;;1.62;;
23001;SDS011;11667;51.706;4.856;2024-03-23T09:18:42;5.58;;;1.37;;
23001;SDS011;11667;51.706;4.856;2024-03-23T09:21:12;3.58;;;0.88;;
23001;SDS011;11667;51.706;4.856;2024-03-23T09:23:48;4.45;;;1.30;;
23001;SDS011;11667;51.706;4.856;2024-03-23T09:26:13;3.77;;;1.25;;
23001;SDS011;11667;51.706;4.856;2024-03-23T09:28:42;7.95;;;1.45;;
23001;SDS011;11667;51.706;4.856;2024-03-23T09:31:12;5.40;;;1.20;;
23001;SDS011;11667;51.706;4.856;2024-03-23T09:33:42;6.33;;;2.02;;
23001;SDS011;11667;51.706;4.856;2024-03-23T09:36:11;3.15;;;1.22;;
23001;SDS011;11667;51.706;4.856;2024-03-23T09:38:41;3.72;;;1.55;;
23001;SDS011;11667;51.706;4.856;2024-03-23T09:41:10;5.05;;;1.65;;
23001;SDS011;11667;51.706;4.856;2024-03-23T09:43:41;2.42;;;0.95;;
23001;SDS011;11667;51.706;4.856;2024-03-23T09:46:11;4.67;;;1.35;;
23001;SDS011;11667;51.706;4.856;2024-03-23T09:48:40;6.12;;;1.12;;
23001;SDS011;11667;51.706;4.856;2024-03-23T09:51:12;9.58;;;2.17;;
23001;SDS011;11667;51.706;4.856;2024-03-23T09:53:42;5.03;;;1.55;;
23001;SDS011;11667;51.706;4.856;2024-03-23T09:56:11;1.45;;;0.93;;
23001;SDS011;11667;51.706;4.856;2024-03-23T09:58:40;4.60;;;1.35;;
23001;SDS011;11667;51.706;4.856;2024-03-23T10:01:09;12.58;;;1.57;;
23001;SDS011;11667;51.706;4.856;2024-03-23T10:03:47;5.45;;;1.12;;
23001;SDS011;11667;51.706;4.856;2024-03-23T10:06:14;5.12;;;1.32;;
23001;SDS011;11667;51.706;4.856;2024-03-23T10:08:45;5.90;;;1.62;;
23001;SDS011;11667;51.706;4.856;2024-03-23T10:11:15;5.30;;;1.60;;
23001;SDS011;11667;51.706;4.856;2024-03-23T10:13:45;4.92;;;1.62;;
23001;SDS011;11667;51.706;4.856;2024-03-23T10:16:21;5.08;;;1.60;;
23001;SDS011;11667;51.706;4.856;2024-03-23T10:18:51;5.72;;;1.42;;
23001;SDS011;11667;51.706;4.856;2024-03-23T10:21:20;2.22;;;1.05;;
23001;SDS011;11667;51.706;4.856;2024-03-23T10:23:49;3.72;;;1.07;;
23001;SDS011;11667;51.706;4.856;2024-03-23T10:26:19;3.75;;;1.40;;
23001;SDS011;11667;51.706;4.856;2024-03-23T10:28:53;2.62;;;1.25;;
23001;SDS011;11667;51.706;4.856;2024-03-23T10:31:25;8.33;;;1.20;;
23001;SDS011;11667;51.706;4.856;2024-03-23T10:33:54;3.33;;;1.00;;
23001;SDS011;11667;51.706;4.856;2024-03-23T10:36:24;2.42;;;1.32;;
23001;SDS011;11667;51.706;4.856;2024-03-23T10:43:57;4.90;;;1.30;;
23001;SDS011;11667;51.706;4.856;2024-03-23T10:46:27;2.70;;;1.05;;
23001;SDS011;11667;51.706;4.856;2024-03-23T10:48:57;4.70;;;1.35;;
23001;SDS011;11667;51.706;4.856;2024-03-23T10:51:26;6.10;;;1.40;;
23001;SDS011;11667;51.706;4.856;2024-03-23T10:53:55;3.90;;;1.30;;
23001;SDS011;11667;51.706;4.856;2024-03-23T10:56:27;5.53;;;1.57;;
23001;SDS011;11667;51.706;4.856;2024-03-23T10:58:59;7.30;;;1.75;;
23001;SDS011;11667;51.706;4.856;2024-03-23T11:01:30;3.42;;;1.15;;
23001;SDS011;11667;51.706;4.856;2024-03-23T11:04:00;7.08;;;1.60;;
23001;SDS011;11667;51.706;4.856;2024-03-23T11:06:39;4.20;;;1.55;;
23001;SDS011;11667;51.706;4.856;2024-03-23T11:09:43;2.45;;;1.35;;
23001;SDS011;11667;51.706;4.856;2024-03-23T11:11:56;4.83;;;1.50;;
23001;SDS011;11667;51.706;4.856;2024-03-23T11:14:25;5.97;;;1.55;;
23001;SDS011;11667;51.706;4.856;2024-03-23T11:17:09;3.35;;;1.50;;
23001;SDS011;11667;51.706;4.856;2024-03-23T11:19:38;4.72;;;1.30;;
23001;SDS011;11667;51.706;4.856;2024-03-23T11:22:08;3.65;;;1.35;;
23001;SDS011;11667;51.706;4.856;2024-03-23T11:24:37;6.22;;;1.42;;
23001;SDS011;11667;51.706;4.856;2024-03-23T11:27:16;5.67;;;1.65;;
23001;SDS011;11667;51.706;4.856;2024-03-23T11:29:45;9.30;;;1.75;;
23001;SDS011;11667;51.706;4.856;2024-03-23T11:32:15;4.45;;;1.27;;
23001;SDS011;11667;51.706;4.856;2024-03-23T11:34:44;4.42;;;1.00;;
23001;SDS011;11667;51.706;4.856;2024-03-23T11:37:13;6.50;;;2.02;;
23001;SDS011;11667;51.706;4.856;2024-03-23T11:39:42;5.28;;;2.00;;
23001;SDS011;11667;51.706;4.856;2024-03-23T11:42:13;2.50;;;1.40;;
23001;SDS011;11667;51.706;4.856;2024-03-23T11:44:44;6.65;;;2.33;;
23001;SDS011;11667;51.706;4.856;2024-03-23T11:47:14;4.10;;;1.27;;
23001;SDS011;11667;51.706;4.856;2024-03-23T11:49:43;5.72;;;1.20;;
23001;SDS011;11667;51.706;4.856;2024-03-23T11:52:14;5.75;;;1.25;;
23001;SDS011;11667;51.706;4.856;2024-03-23T11:54:45;4.67;;;1.60;;
23001;SDS011;11667;51.706;4.856;2024-03-23T11:57:15;4.67;;;1.27;;
23001;SDS011;11667;51.706;4.856;2024-03-23T11:59:44;4.80;;;1.35;;
23001;SDS011;11667;51.706;4.856;2024-03-23T12:02:17;4.90;;;1.37;;
23001;SDS011;11667;51.706;4.856;2024-03-23T12:04:53;4.47;;;1.10;;
23001;SDS011;11667;51.706;4.856;2024-03-23T12:07:22;5.90;;;1.40;;
23001;SDS011;11667;51.706;4.856;2024-03-23T12:10:04;4.65;;;1.30;;
23001;SDS011;11667;51.706;4.856;2024-03-23T12:12:36;4.05;;;1.35;;
23001;SDS011;11667;51.706;4.856;2024-03-23T12:15:06;7.20;;;1.57;;
23001;SDS011;11667;51.706;4.856;2024-03-23T12:17:36;1.62;;;0.80;;
23001;SDS011;11667;51.706;4.856;2024-03-23T12:20:06;5.72;;;1.50;;
23001;SDS011;11667;51.706;4.856;2024-03-23T12:22:35;8.93;;;2.02;;
23001;SDS011;11667;51.706;4.856;2024-03-23T12:25:04;5.17;;;1.62;;
23001;SDS011;11667;51.706;4.856;2024-03-23T12:27:34;2.67;;;1.50;;
23001;SDS011;11667;51.706;4.856;2024-03-23T12:30:04;7.55;;;1.95;;
23001;SDS011;11667;51.706;4.856;2024-03-23T12:32:34;11.75;;;2.85;;
23001;SDS011;11667;51.706;4.856;2024-03-23T12:35:03;2.17;;;1.05;;
23001;SDS011;11667;51.706;4.856;2024-03-23T12:37:33;4.70;;;2.15;;
23001;SDS011;11667;51.706;4.856;2024-03-23T12:40:02;6.90;;;1.40;;
23001;SDS011;11667;51.706;4.856;2024-03-23T12:42:32;7.28;;;1.57;;
23001;SDS011;11667;51.706;4.856;2024-03-23T12:45:01;15.53;;;3.50;;
23001;SDS011;11667;51.706;4.856;2024-03-23T12:47:31;7.05;;;2.12;;
23001;SDS011;11667;51.706;4.856;2024-03-23T12:50:00;4.90;;;1.67;;
23001;SDS011;11667;51.706;4.856;2024-03-23T12:52:29;10.95;;;2.25;;
23001;SDS011;11667;51.706;4.856;2024-03-23T12:54:58;7.15;;;1.92;;
23001;SDS011;11667;51.706;4.856;2024-03-23T12:57:28;3.98;;;1.20;;
23001;SDS011;11667;51.706;4.856;2024-03-23T12:59:57;4.45;;;1.57;;
23001;SDS011;11667;51.706;4.856;2024-03-23T13:02:26;19.48;;;1.90;;
23001;SDS011;11667;51.706;4.856;2024-03-23T13:04:56;3.12;;;1.10;;
23001;SDS011;11667;51.706;4.856;2024-03-23T13:07:25;5.92;;;1.22;;
23001;SDS011;11667;51.706;4.856;2024-03-23T13:09:55;3.98;;;0.98;;
23001;SDS011;11667;51.706;4.856;2024-03-23T13:12:24;9.43;;;2.20;;
23001;SDS011;11667;51.706;4.856;2024-03-23T13:14:53;11.05;;;2.02;;
23001;SDS011;11667;51.706;4.856;2024-03-23T13:17:22;3.70;;;1.55;;
23001;SDS011;11667;51.706;4.856;2024-03-23T13:19:52;3.60;;;1.42;;
23001;SDS011;11667;51.706;4.856;2024-03-23T13:22:23;3.65;;;1.72;;
23001;SDS011;11667;51.706;4.856;2024-03-23T13:24:52;2.98;;;1.65;;
23001;SDS011;11667;51.706;4.856;2024-03-23T13:27:22;2.80;;;1.40;;
23001;SDS011;11667;51.706;4.856;2024-03-23T13:29:51;3.67;;;1.30;;
23001;SDS011;11667;51.706;4.856;2024-03-23T13:32:21;5.53;;;1.17;;
23001;SDS011;11667;51.706;4.856;2024-03-23T13:34:50;8.68;;;1.85;;
23001;SDS011;11667;51.706;4.856;2024-03-23T13:37:19;10.00;;;1.50;;
23001;SDS011;11667;51.706;4.856;2024-03-23T13:39:49;3.05;;;1.00;;
23001;SDS011;11667;51.706;4.856;2024-03-23T13:42:18;6.17;;;1.25;;
23001;SDS011;11667;51.706;4.856;2024-03-23T13:44:47;4.90;;;1.27;;
23001;SDS011;11667;51.706;4.856;2024-03-23T13:47:17;2.75;;;0.93;;
23001;SDS011;11667;51.706;4.856;2024-03-23T13:49:47;3.35;;;0.95;;
23001;SDS011;11667;51.706;4.856;2024-03-23T13:52:16;7.30;;;1.80;;
23001;SDS011;11667;51.706;4.856;2024-03-23T13:54:47;4.03;;;0.93;;
23001;SDS011;11667;51.706;4.856;2024-03-23T13:57:17;1.32;;;0.78;;
23001;SDS011;11667;51.706;4.856;2024-03-23T13:59:48;2.17;;;1.12;;
23001;SDS011;11667;51.706;4.856;2024-03-23T14:02:17;5.55;;;1.57;;
23001;SDS011;11667;51.706;4.856;2024-03-23T14:04:46;5.35;;;2.12;;
23001;SDS011;11667;51.706;4.856;2024-03-23T14:07:16;1.45;;;0.75;;
23001;SDS011;11667;51.706;4.856;2024-03-23T14:09:45;2.35;;;0.95;;
23001;SDS011;11667;51.706;4.856;2024-03-23T14:12:15;3.72;;;1.10;;
23001;SDS011;11667;51.706;4.856;2024-03-23T14:14:44;5.00;;;1.52;;
23001;SDS011;11667;51.706;4.856;2024-03-23T14:17:13;5.83;;;1.27;;
23001;SDS011;11667;51.706;4.856;2024-03-23T14:19:43;2.75;;;0.88;;
23001;SDS011;11667;51.706;4.856;2024-03-23T14:22:13;5.40;;;0.75;;
23001;SDS011;11667;51.706;4.856;2024-03-23T14:24:44;3.83;;;1.00;;
23001;SDS011;11667;51.706;4.856;2024-03-23T14:27:14;7.15;;;1.52;;
23001;SDS011;11667;51.706;4.856;2024-03-23T14:29:45;7.65;;;2.27;;
23001;SDS011;11667;51.706;4.856;2024-03-23T14:32:14;3.70;;;1.70;;
23001;SDS011;11667;51.706;4.856;2024-03-23T14:34:43;2.33;;;0.93;;
23001;SDS011;11667;51.706;4.856;2024-03-23T14:37:14;2.05;;;0.98;;
23001;SDS011;11667;51.706;4.856;2024-03-23T14:39:43;1.45;;;0.88;;
23001;SDS011;11667;51.706;4.856;2024-03-23T14:42:13;0.55;;;0.53;;
23001;SDS011;11667;51.706;4.856;2024-03-23T14:44:42;2.55;;;1.10;;
23001;SDS011;11667;51.706;4.856;2024-03-23T14:47:12;5.10;;;1.75;;
23001;SDS011;11667;51.706;4.856;2024-03-23T14:49:41;5.65;;;1.80;;
23001;SDS011;11667;51.706;4.856;2024-03-23T14:52:18;11.57;;;3.22;;
23001;SDS011;11667;51.706;4.856;2024-03-23T14:54:43;3.25;;;1.50;;
23001;SDS011;11667;51.706;4.856;2024-03-23T14:57:12;2.90;;;1.45;;
23001;SDS011;11667;51.706;4.856;2024-03-23T14:59:42;1.60;;;1.20;;
23001;SDS011;11667;51.706;4.856;2024-03-23T15:02:13;2.30;;;1.20;;
23001;SDS011;11667;51.706;4.856;2024-03-23T15:04:42;6.67;;;1.92;;
23001;SDS011;11667;51.706;4.856;2024-03-23T15:07:11;3.95;;;1.92;;
23001;SDS011;11667;51.706;4.856;2024-03-23T15:09:41;3.92;;;1.90;;
23001;SDS011;11667;51.706;4.856;2024-03-23T15:12:10;9.80;;;2.90;;
23001;SDS011;11667;51.706;4.856;2024-03-23T15:14:39;1.32;;;0.70;;
23001;SDS011;11667;51.706;4.856;2024-03-23T15:17:09;0.75;;;0.28;;
23001;SDS011;11667;51.706;4.856;2024-03-23T15:19:38;3.87;;;1.90;;
23001;SDS011;11667;51.706;4.856;2024-03-23T15:22:09;3.77;;;1.40;;
23001;SDS011;11667;51.706;4.856;2024-03-23T15:24:38;3.42;;;1.30;;
23001;SDS011;11667;51.706;4.856;2024-03-23T15:27:09;1.45;;;0.90;;
23001;SDS011;11667;51.706;4.856;2024-03-23T15:29:38;1.42;;;0.90;;
23001;SDS011;11667;51.706;4.856;2024-03-23T15:32:09;0.75;;;0.45;;
23001;SDS011;11667;51.706;4.856;2024-03-23T15:34:39;3.92;;;1.92;;
23001;SDS011;11667;51.706;4.856;2024-03-23T15:37:08;5.87;;;2.60;;
23001;SDS011;11667;51.706;4.856;2024-03-23T15:39:37;3.25;;;1.80;;
23001;SDS011;11667;51.706;4.856;2024-03-23T15:42:07;2.25;;;1.10;;
23001;SDS011;11667;51.706;4.856;2024-03-23T15:44:37;5.95;;;2.15;;
23001;SDS011;11667;51.706;4.856;2024-03-23T15:47:06;0.70;;;0.53;;
23001;SDS011;11667;51.706;4.856;2024-03-23T15:55:54;7.70;;;2.35;;
23001;SDS011;11667;51.706;4.856;2024-03-23T15:58:23;3.00;;;1.02;;
23001;SDS011;11667;51.706;4.856;2024-03-23T16:00:56;7.12;;;2.30;;
23001;SDS011;11667;51.706;4.856;2024-03-23T16:03:32;6.72;;;3.75;;
23001;SDS011;11667;51.706;4.856;2024-03-23T16:06:02;8.25;;;4.90;;
23001;SDS011;11667;51.706;4.856;2024-03-23T16:08:33;9.15;;;6.00;;